Time;durP1;ratioP1;P1;durP2;ratioP2;P2;SDS_P1;SDS_P2;PMS_P1;PMS_P2;Temp;Humidity;BMP_temperature;BMP_pressure;BME280_temperature;BME280_humidity;BME280_pressure;Samples;Min_cycle;Max_cycle;Signal;HPM_P1;HPM_P2
2022/05/15 00:01:24;;;;;;;4.40;3.50;;;11.00;99.90;;;;;;7388503;19;20328;-81
2022/05/15 00:03:50;;;;;;;3.90;3.17;;;11.00;99.90;;;;;;7387242;19;20355;-79
2022/05/15 00:06:16;;;;;;;3.92;3.13;;;10.80;99.90;;;;;;7389963;19;20328;-81
2022/05/15 00:08:41;;;;;;;4.80;3.43;;;10.80;99.90;;;;;;7384911;19;20324;-79
2022/05/15 00:11:08;;;;;;;4.13;3.08;;;10.70;99.90;;;;;;7383884;19;20399;-81
2022/05/15 00:13:34;;;;;;;5.18;3.30;;;10.60;99.90;;;;;;7386140;19;20289;-77
2022/05/15 00:16:00;;;;;;;6.27;3.73;;;10.60;99.90;;;;;;7385964;19;20349;-79
2022/05/15 00:18:25;;;;;;;7.35;3.72;;;10.70;99.90;;;;;;7382637;19;20321;-81
2022/05/15 00:20:51;;;;;;;4.90;3.13;;;10.60;99.90;;;;;;7382620;19;20313;-79
2022/05/15 00:23:18;;;;;;;4.43;3.53;;;10.50;99.90;;;;;;7380735;19;20356;-80
2022/05/15 00:25:44;;;;;;;6.32;4.30;;;10.50;99.90;;;;;;7383637;19;20849;-80
2022/05/15 00:28:10;;;;;;;6.30;4.30;;;10.40;99.90;;;;;;7382447;19;20318;-81
2022/05/15 00:30:36;;;;;;;5.47;3.50;;;10.50;99.90;;;;;;7380443;19;20320;-79
2022/05/15 00:33:02;;;;;;;4.63;3.92;;;10.30;99.90;;;;;;7380609;19;20316;-78
2022/05/15 00:35:28;;;;;;;4.35;3.72;;;10.30;99.90;;;;;;7381736;19;20901;-79
2022/05/15 00:37:54;;;;;;;4.33;3.33;;;10.30;99.90;;;;;;7379662;19;20327;-78
2022/05/15 00:40:20;;;;;;;5.43;3.50;;;10.30;99.90;;;;;;7385821;19;20320;-78
2022/05/15 00:42:46;;;;;;;5.32;2.92;;;10.20;99.90;;;;;;7381408;19;20335;-80
2022/05/15 00:45:12;;;;;;;5.35;3.15;;;10.10;99.90;;;;;;7382405;19;20956;-82
2022/05/15 00:47:39;;;;;;;3.28;2.90;;;10.20;99.90;;;;;;7381816;19;20293;-79
2022/05/15 00:50:06;;;;;;;4.97;3.47;;;10.10;99.90;;;;;;7380050;19;20331;-78
2022/05/15 00:52:33;;;;;;;5.70;3.50;;;10.10;99.90;;;;;;7379754;19;20393;-84
2022/05/15 00:55:11;;;;;;;6.47;3.17;;;10.10;99.90;;;;;;7379200;19;20316;-79
2022/05/15 00:57:54;;;;;;;4.15;3.00;;;10.00;99.90;;;;;;7379195;19;20635;-78
2022/05/15 01:00:22;;;;;;;3.88;3.40;;;9.90;99.90;;;;;;7277246;19;2004339;-79
2022/05/15 01:02:59;;;;;;;4.15;3.25;;;9.90;99.90;;;;;;7379730;19;20329;-78
2022/05/15 01:05:24;;;;;;;4.38;3.13;;;9.90;99.90;;;;;;7378758;19;20335;-78
2022/05/15 01:07:50;;;;;;;4.97;3.20;;;9.80;99.90;;;;;;7380146;19;21032;-79
2022/05/15 01:10:16;;;;;;;4.22;3.33;;;9.80;99.90;;;;;;7379296;19;20343;-79
2022/05/15 01:12:42;;;;;;;5.80;3.95;;;9.70;99.90;;;;;;7379142;19;20349;-78
2022/05/15 01:15:21;;;;;;;4.47;3.67;;;9.60;99.90;;;;;;7378020;19;20328;-78
2022/05/15 01:17:48;;;;;;;5.57;3.70;;;9.50;99.90;;;;;;7377084;19;20861;-79
2022/05/15 01:20:16;;;;;;;4.13;3.37;;;9.50;99.90;;;;;;7380584;19;20654;-80
2022/05/15 01:22:41;;;;;;;3.33;3.03;;;9.40;99.90;;;;;;7378613;19;20332;-80
2022/05/15 01:25:12;;;;;;;3.50;3.17;;;9.50;99.90;;;;;;7376280;19;20340;-78
2022/05/15 01:27:38;;;;;;;5.30;3.70;;;9.40;99.90;;;;;;7380473;19;20672;-79
2022/05/15 01:30:05;;;;;;;3.92;3.25;;;9.60;99.90;;;;;;7381546;19;20320;-78
2022/05/15 01:32:31;;;;;;;4.43;3.35;;;9.40;99.90;;;;;;7381712;19;20343;-78
2022/05/15 01:34:59;;;;;;;6.47;3.63;;;9.50;99.90;;;;;;7382068;19;20333;-79
2022/05/15 01:37:25;;;;;;;6.82;3.85;;;9.40;99.90;;;;;;7382310;19;20342;-80
2022/05/15 01:39:51;;;;;;;5.88;4.57;;;9.40;99.90;;;;;;7385309;19;20298;-81
2022/05/15 01:42:17;;;;;;;5.63;3.90;;;9.30;99.90;;;;;;7380393;19;20881;-78
2022/05/15 01:44:43;;;;;;;3.53;3.10;;;9.30;99.90;;;;;;7378511;19;20316;-78
2022/05/15 01:47:09;;;;;;;3.60;3.30;;;9.30;99.90;;;;;;7376686;19;20333;-78
2022/05/15 01:49:36;;;;;;;3.88;3.47;;;9.20;99.90;;;;;;7379636;19;20321;-78
2022/05/15 01:52:03;;;;;;;5.40;3.47;;;9.20;99.90;;;;;;7380849;19;20397;-78
2022/05/15 01:54:28;;;;;;;3.80;3.20;;;9.20;99.90;;;;;;7377655;19;21017;-78
2022/05/15 01:56:54;;;;;;;6.93;3.77;;;9.10;99.90;;;;;;7379130;19;20324;-78
2022/05/15 01:59:20;;;;;;;4.57;3.00;;;9.00;99.90;;;;;;7378332;19;20345;-78
2022/05/15 02:01:47;;;;;;;3.73;2.77;;;9.00;99.90;;;;;;7378443;19;20334;-79
2022/05/15 02:04:12;;;;;;;4.22;3.10;;;9.00;99.90;;;;;;7378384;19;20328;-78
2022/05/15 02:06:38;;;;;;;5.03;3.40;;;9.00;99.90;;;;;;7377014;19;20305;-80
2022/05/15 02:09:05;;;;;;;5.88;3.92;;;8.90;99.90;;;;;;7377685;19;20325;-78
2022/05/15 02:11:31;;;;;;;4.55;3.75;;;9.00;99.90;;;;;;7376468;19;21144;-78
2022/05/15 02:13:57;;;;;;;7.97;4.32;;;8.90;99.90;;;;;;7373911;19;20333;-78
2022/05/15 02:16:23;;;;;;;6.82;5.03;;;8.90;99.90;;;;;;7381575;19;20863;-80
2022/05/15 02:18:49;;;;;;;8.27;5.10;;;8.80;99.90;;;;;;7381856;19;20396;-77
2022/05/15 02:21:15;;;;;;;6.93;5.10;;;8.80;99.90;;;;;;7384775;19;20336;-79
2022/05/15 02:23:40;;;;;;;10.35;6.22;;;8.80;99.90;;;;;;7384012;19;20309;-78
2022/05/15 02:26:06;;;;;;;10.33;5.20;;;8.70;99.90;;;;;;7383756;19;20336;-79
2022/05/15 02:28:32;;;;;;;7.68;5.70;;;8.80;99.90;;;;;;7381851;19;20410;-80
2022/05/15 02:30:58;;;;;;;6.50;5.05;;;8.80;99.90;;;;;;7382407;19;20415;-80
2022/05/15 02:33:24;;;;;;;6.07;4.43;;;8.80;99.90;;;;;;7383203;19;20456;-78
2022/05/15 02:35:50;;;;;;;5.18;3.92;;;8.60;99.90;;;;;;7382772;19;20339;-80
2022/05/15 02:38:16;;;;;;;5.60;4.78;;;8.40;99.90;;;;;;7384767;19;20964;-77
2022/05/15 02:40:42;;;;;;;5.10;3.45;;;8.40;99.90;;;;;;7382755;19;20898;-78
2022/05/15 02:43:07;;;;;;;4.77;3.50;;;8.30;99.90;;;;;;7383690;19;20357;-78
2022/05/15 02:45:33;;;;;;;5.72;3.95;;;8.40;99.90;;;;;;7385000;19;20317;-78
2022/05/15 02:47:59;;;;;;;4.20;3.80;;;8.30;99.90;;;;;;7381902;19;20361;-78
2022/05/15 02:53:09;;;;;;;4.15;3.50;;;8.40;99.90;;;;;;7280356;19;2004500;-78
2022/05/15 02:55:35;;;;;;;6.10;4.00;;;8.30;99.90;;;;;;7380559;19;20332;-78
2022/05/15 02:58:01;;;;;;;3.87;3.47;;;8.30;99.90;;;;;;7380579;19;20380;-78
2022/05/15 03:00:27;;;;;;;4.15;3.00;;;8.30;99.90;;;;;;7380167;19;20321;-80
2022/05/15 03:02:53;;;;;;;3.40;3.10;;;8.40;99.90;;;;;;7381034;19;21009;-78
2022/05/15 03:05:19;;;;;;;4.38;3.85;;;8.40;99.90;;;;;;7381022;19;20300;-78
2022/05/15 03:07:45;;;;;;;4.03;3.33;;;8.30;99.90;;;;;;7386945;19;20342;-78
2022/05/15 03:10:13;;;;;;;4.47;3.47;;;8.30;99.90;;;;;;7373537;19;20345;-79
2022/05/15 03:12:39;;;;;;;5.43;3.50;;;8.20;99.90;;;;;;7378696;19;20312;-78
2022/05/15 03:15:07;;;;;;;4.75;3.53;;;8.30;99.90;;;;;;7380324;19;21565;-78
2022/05/15 03:17:34;;;;;;;4.00;3.20;;;8.20;99.90;;;;;;7358341;19;20317;-79
2022/05/15 03:20:02;;;;;;;3.90;3.60;;;8.10;99.90;;;;;;7379672;19;20328;-77
2022/05/15 03:22:28;;;;;;;6.15;3.65;;;8.10;99.90;;;;;;7378639;19;20300;-77
2022/05/15 03:24:54;;;;;;;4.63;3.93;;;8.10;99.90;;;;;;7380976;19;20335;-80
2022/05/15 03:27:20;;;;;;;4.17;3.30;;;8.10;99.90;;;;;;7380416;19;20876;-77
2022/05/15 03:29:46;;;;;;;3.50;2.90;;;8.10;99.90;;;;;;7379226;19;20414;-78
2022/05/15 03:32:12;;;;;;;4.38;3.33;;;8.10;99.90;;;;;;7343570;19;20337;-80
2022/05/15 03:34:39;;;;;;;3.53;3.22;;;8.20;99.90;;;;;;7381685;19;20804;-78
2022/05/15 03:37:06;;;;;;;4.15;3.70;;;8.20;99.90;;;;;;7381835;19;20344;-78
2022/05/15 03:39:32;;;;;;;4.03;3.60;;;8.20;99.90;;;;;;7384145;19;20328;-80
2022/05/15 03:41:58;;;;;;;3.97;3.30;;;8.20;99.90;;;;;;7381101;19;20320;-77
2022/05/15 03:44:23;;;;;;;3.67;3.38;;;8.20;99.90;;;;;;7382057;19;20353;-78
2022/05/15 03:46:49;;;;;;;5.72;3.85;;;8.10;99.90;;;;;;7381922;19;20614;-78
2022/05/15 03:49:15;;;;;;;5.05;4.00;;;8.10;99.90;;;;;;7383574;19;20414;-78
2022/05/15 03:51:42;;;;;;;4.70;3.75;;;8.20;99.90;;;;;;7380299;19;21015;-81
2022/05/15 03:54:09;;;;;;;4.70;3.83;;;8.20;99.90;;;;;;7385015;19;20345;-78
2022/05/15 03:56:50;;;;;;;4.40;4.00;;;8.20;99.90;;;;;;7381250;19;20347;-77
2022/05/15 03:59:26;;;;;;;4.07;3.30;;;8.30;99.90;;;;;;7280618;19;2004805;-77
2022/05/15 04:01:53;;;;;;;5.03;3.25;;;8.20;99.90;;;;;;7381517;19;21425;-78
2022/05/15 04:04:19;;;;;;;4.13;3.45;;;8.30;99.90;;;;;;7383923;19;20308;-78
2022/05/15 04:06:45;;;;;;;3.30;3.00;;;8.30;99.90;;;;;;7386239;19;20359;-77
2022/05/15 04:09:10;;;;;;;4.88;3.28;;;8.30;99.90;;;;;;7384521;19;20320;-78
2022/05/15 04:11:36;;;;;;;5.23;4.03;;;8.50;99.90;;;;;;7383311;19;20832;-78
2022/05/15 04:14:02;;;;;;;5.13;4.22;;;8.40;99.90;;;;;;7385730;19;20990;-78
2022/05/15 04:16:27;;;;;;;5.28;4.30;;;8.40;99.90;;;;;;7381117;19;20302;-78
2022/05/15 04:18:55;;;;;;;4.97;3.70;;;8.40;99.90;;;;;;7382112;19;20325;-78
2022/05/15 04:21:21;;;;;;;4.90;3.70;;;8.50;99.90;;;;;;7385459;19;20321;-78
2022/05/15 04:23:47;;;;;;;4.20;3.80;;;8.60;99.90;;;;;;7384679;19;21121;-78
2022/05/15 04:26:13;;;;;;;5.13;3.93;;;8.70;99.90;;;;;;7386232;19;20324;-78
2022/05/15 04:28:39;;;;;;;5.43;3.77;;;8.90;99.90;;;;;;7385546;19;20320;-78
2022/05/15 04:31:05;;;;;;;5.03;4.23;;;8.90;99.90;;;;;;7383969;19;20307;-78
2022/05/15 04:33:30;;;;;;;5.10;3.67;;;9.00;99.90;;;;;;7382039;19;20312;-79
2022/05/15 04:35:56;;;;;;;4.57;4.00;;;9.10;99.90;;;;;;7385113;19;20301;-80
2022/05/15 04:38:22;;;;;;;7.80;3.88;;;9.20;99.90;;;;;;7387420;19;20316;-78
2022/05/15 04:40:47;;;;;;;7.83;4.20;;;9.20;99.90;;;;;;7387181;19;20304;-78
2022/05/15 04:43:13;;;;;;;5.97;3.83;;;9.30;99.90;;;;;;7386518;19;20332;-78
2022/05/15 04:45:39;;;;;;;6.27;4.60;;;9.40;99.90;;;;;;7382985;19;20713;-78
2022/05/15 04:48:05;;;;;;;7.82;3.97;;;9.50;99.90;;;;;;7382635;19;20332;-78
2022/05/15 04:50:30;;;;;;;4.32;3.50;;;9.60;99.90;;;;;;7382141;19;20354;-78
2022/05/15 04:52:56;;;;;;;5.07;3.50;;;9.70;99.90;;;;;;7380735;19;20297;-78
2022/05/15 04:55:21;;;;;;;5.90;3.83;;;9.90;99.90;;;;;;7381530;19;20312;-78
2022/05/15 04:57:47;;;;;;;5.10;3.80;;;9.90;99.90;;;;;;7381845;19;20317;-78
2022/05/15 05:00:17;;;;;;;7.10;3.80;;;10.00;99.90;;;;;;7382357;19;20328;-78
2022/05/15 05:02:43;;;;;;;3.92;3.40;;;10.00;99.90;;;;;;7380754;19;20332;-78
2022/05/15 05:05:09;;;;;;;3.78;2.80;;;10.20;99.90;;;;;;7380295;19;20344;-78
2022/05/15 05:07:34;;;;;;;5.35;3.22;;;10.30;99.90;;;;;;7381641;19;20308;-79
2022/05/15 05:10:00;;;;;;;3.50;3.20;;;10.50;99.90;;;;;;7380672;19;20308;-84
2022/05/15 05:12:25;;;;;;;5.35;2.75;;;10.70;99.90;;;;;;7379345;19;20971;-78
2022/05/15 05:14:51;;;;;;;3.90;2.80;;;10.90;99.90;;;;;;7381856;19;20297;-79
2022/05/15 05:17:17;;;;;;;4.53;3.10;;;11.00;99.90;;;;;;7383117;19;20362;-81
2022/05/15 05:19:42;;;;;;;3.63;3.00;;;11.20;99.90;;;;;;7382971;19;20330;-78
2022/05/15 05:22:09;;;;;;;3.93;2.83;;;11.30;99.90;;;;;;7383763;19;20396;-78
2022/05/15 05:24:35;;;;;;;4.38;3.15;;;11.40;99.90;;;;;;7383879;19;20329;-77
2022/05/15 05:27:00;;;;;;;2.63;2.40;;;11.60;99.90;;;;;;7384389;19;20313;-79
2022/05/15 05:29:26;;;;;;;3.30;2.58;;;11.70;99.90;;;;;;7383345;19;20673;-78
2022/05/15 05:31:52;;;;;;;4.77;2.93;;;11.80;99.90;;;;;;7381621;19;20316;-83
2022/05/15 05:34:17;;;;;;;3.80;3.03;;;12.00;99.90;;;;;;7380694;19;20304;-77
2022/05/15 05:36:44;;;;;;;3.58;2.65;;;12.10;99.90;;;;;;7382440;19;20328;-78
2022/05/15 05:39:09;;;;;;;4.20;2.28;;;12.10;99.90;;;;;;7383853;19;21366;-78
2022/05/15 05:41:35;;;;;;;6.00;3.10;;;12.30;99.90;;;;;;7382748;19;20325;-80
2022/05/15 05:44:01;;;;;;;4.38;2.75;;;12.30;99.90;;;;;;7380603;19;20328;-82
2022/05/15 05:46:27;;;;;;;4.20;2.67;;;12.50;99.90;;;;;;7386179;19;20308;-85
2022/05/15 05:48:54;;;;;;;4.30;2.80;;;12.60;99.90;;;;;;7344354;19;20321;-78
2022/05/15 05:51:19;;;;;;;3.33;2.75;;;12.80;99.90;;;;;;7383669;19;20347;-78
2022/05/15 05:53:45;;;;;;;4.80;2.30;;;12.90;99.90;;;;;;7387732;19;20325;-81
2022/05/15 05:56:11;;;;;;;3.63;2.60;;;13.10;99.90;;;;;;7388955;19;20348;-81
2022/05/15 05:58:37;;;;;;;3.33;2.30;;;13.30;99.90;;;;;;7386475;19;20328;-80
2022/05/15 06:01:03;;;;;;;2.50;2.30;;;13.50;99.90;;;;;;7384608;19;20300;-83
2022/05/15 06:06:13;;;;;;;2.53;1.95;;;13.60;99.90;;;;;;7389226;19;20427;-78
2022/05/15 06:08:40;;;;;;;3.10;2.10;;;13.80;99.90;;;;;;7387669;19;20715;-78
2022/05/15 06:11:05;;;;;;;2.45;1.83;;;14.00;99.90;;;;;;7385634;19;20403;-80
2022/05/15 06:13:31;;;;;;;3.72;2.20;;;14.30;99.90;;;;;;7383781;19;20373;-80
2022/05/15 06:15:57;;;;;;;3.45;2.38;;;14.60;99.90;;;;;;7387824;19;20349;-78
2022/05/15 06:18:23;;;;;;;3.07;2.37;;;14.50;99.90;;;;;;7388749;19;20404;-84
2022/05/15 06:20:48;;;;;;;2.03;1.80;;;14.40;99.90;;;;;;7386656;19;20397;-85
2022/05/15 06:23:14;;;;;;;2.60;2.10;;;14.60;99.90;;;;;;7386745;19;20944;-78
2022/05/15 06:25:40;;;;;;;3.23;2.40;;;14.60;99.90;;;;;;7385596;19;20836;-80
2022/05/15 06:28:05;;;;;;;2.30;1.90;;;14.80;99.90;;;;;;7383163;19;21336;-80
2022/05/15 06:30:31;;;;;;;1.80;1.63;;;15.10;99.90;;;;;;7385413;19;20420;-80
2022/05/15 06:32:59;;;;;;;3.13;2.00;;;15.30;99.90;;;;;;7382694;19;20852;-78
2022/05/15 06:35:24;;;;;;;3.50;1.80;;;15.50;99.90;;;;;;7385953;19;20844;-80
2022/05/15 06:37:50;;;;;;;3.08;1.70;;;15.60;99.90;;;;;;7388048;19;20320;-85
2022/05/15 06:40:16;;;;;;;3.50;1.80;;;15.80;99.90;;;;;;7401599;19;20345;-83
2022/05/15 06:42:42;;;;;;;3.25;1.63;;;15.90;99.90;;;;;;7398289;19;20345;-81
2022/05/15 06:45:10;;;;;;;2.25;1.70;;;16.20;99.90;;;;;;7399795;19;20376;-83
2022/05/15 06:47:36;;;;;;;3.08;1.75;;;16.50;99.90;;;;;;7395004;19;20418;-84
2022/05/15 06:50:05;;;;;;;3.42;1.70;;;16.40;99.90;;;;;;7396581;19;20711;-85
2022/05/15 06:52:30;;;;;;;3.47;1.77;;;16.20;99.90;;;;;;7395071;19;20317;-83
2022/05/15 06:54:56;;;;;;;1.83;1.60;;;16.40;99.90;;;;;;7391332;19;20316;-83
2022/05/15 06:57:28;;;;;;;2.13;1.50;;;15.80;99.90;;;;;;7392084;19;20321;-81
2022/05/15 07:00:00;;;;;;;4.32;2.42;;;15.80;99.90;;;;;;7382160;19;20878;-78
2022/05/15 07:02:26;;;;;;;4.05;1.40;;;16.10;99.90;;;;;;7379904;19;20356;-77
2022/05/15 07:04:52;;;;;;;3.30;1.40;;;16.50;99.90;;;;;;7384361;19;21041;-78
2022/05/15 07:07:18;;;;;;;2.60;1.50;;;16.90;99.90;;;;;;7384945;19;20403;-78
2022/05/15 07:09:44;;;;;;;1.33;1.10;;;17.30;99.90;;;;;;7381932;19;20623;-77
2022/05/15 07:12:13;;;;;;;3.50;1.60;;;17.40;99.90;;;;;;7379043;19;20333;-76
2022/05/15 07:14:39;;;;;;;2.58;2.17;;;17.60;99.90;;;;;;7380032;19;20309;-78
2022/05/15 07:17:04;;;;;;;1.77;1.40;;;17.70;99.90;;;;;;7380416;19;20325;-77
2022/05/15 07:19:30;;;;;;;3.07;1.60;;;17.50;99.90;;;;;;7380043;19;20379;-79
2022/05/15 07:21:56;;;;;;;3.95;1.70;;;17.60;99.90;;;;;;7380421;19;20333;-77
2022/05/15 07:24:22;;;;;;;1.87;1.47;;;17.70;99.90;;;;;;7378692;19;20753;-77
2022/05/15 07:26:48;;;;;;;2.17;1.30;;;17.90;99.90;;;;;;7378879;19;20397;-79
2022/05/15 07:29:15;;;;;;;2.90;1.40;;;17.70;99.90;;;;;;7381243;19;20344;-77
2022/05/15 07:31:40;;;;;;;2.25;1.40;;;18.00;99.90;;;;;;7382416;19;20312;-77
2022/05/15 07:34:07;;;;;;;1.77;1.50;;;18.10;99.90;;;;;;7379946;19;20349;-79
2022/05/15 07:36:33;;;;;;;1.25;1.10;;;18.20;99.90;;;;;;7379061;19;20324;-79
2022/05/15 07:38:58;;;;;;;1.05;1.00;;;18.60;99.90;;;;;;7378666;19;20312;-78
2022/05/15 07:41:24;;;;;;;1.73;1.10;;;18.80;99.90;;;;;;7358266;19;20742;-79
2022/05/15 07:43:50;;;;;;;1.83;1.25;;;19.20;99.90;;;;;;7388196;19;20364;-79
2022/05/15 07:46:16;;;;;;;1.63;1.50;;;19.30;99.90;;;;;;7388093;19;21011;-78
2022/05/15 07:48:41;;;;;;;2.40;1.23;;;19.10;99.90;;;;;;7386691;19;20951;-77
2022/05/15 07:51:07;;;;;;;3.30;1.50;;;19.10;99.90;;;;;;7384886;19;20324;-77
2022/05/15 07:53:33;;;;;;;1.67;1.53;;;19.30;99.90;;;;;;7381128;19;20335;-78
2022/05/15 07:56:01;;;;;;;2.30;1.58;;;19.30;99.90;;;;;;7371682;19;20348;-80
2022/05/15 07:58:26;;;;;;;2.03;1.30;;;19.50;99.90;;;;;;7382360;19;20364;-78
2022/05/15 08:00:54;;;;;;;3.17;1.58;;;19.40;99.90;;;;;;7377615;19;20313;-78
2022/05/15 08:03:19;;;;;;;1.98;1.35;;;19.40;99.90;;;;;;7378886;19;20340;-78
2022/05/15 08:08:29;;;;;;;1.85;1.15;;;19.50;99.90;;;;;;7380062;19;20354;-79
2022/05/15 08:10:55;;;;;;;1.87;1.40;;;19.70;99.90;;;;;;7392492;19;20317;-79
2022/05/15 08:13:25;;;;;;;1.40;1.15;;;20.00;99.90;;;;;;7384852;19;20664;-80
2022/05/15 08:15:50;;;;;;;1.48;1.27;;;19.80;99.80;;;;;;7383621;19;20423;-77
2022/05/15 08:23:53;;;;;;;2.47;1.40;;;20.40;98.80;;;;;;7379676;19;20308;-77
2022/05/15 08:26:19;;;;;;;2.58;1.60;;;20.40;98.60;;;;;;7380636;19;21997;-79
2022/05/15 08:28:46;;;;;;;2.45;1.40;;;20.30;98.30;;;;;;7384802;19;20523;-79
2022/05/15 08:31:11;;;;;;;2.08;1.42;;;20.60;97.50;;;;;;7381448;19;20390;-78
2022/05/15 08:33:37;;;;;;;2.57;1.23;;;20.80;95.90;;;;;;7379581;19;20360;-80
2022/05/15 08:36:04;;;;;;;1.40;1.08;;;20.90;94.30;;;;;;7386105;19;20312;-82
2022/05/15 08:38:31;;;;;;;1.35;1.10;;;21.30;94.40;;;;;;7386065;19;20352;-80
2022/05/15 08:41:01;;;;;;;3.28;1.23;;;21.60;92.40;;;;;;7380416;19;20305;-79
2022/05/15 08:43:49;;;;;;;2.10;1.13;;;20.90;90.30;;;;;;7385630;19;20320;-77
2022/05/15 08:46:31;;;;;;;1.00;0.95;;;21.30;90.90;;;;;;7281252;19;2004662;-80
2022/05/15 08:49:07;;;;;;;1.77;1.10;;;21.30;92.20;;;;;;7381333;19;20346;-81
2022/05/15 08:51:33;;;;;;;3.53;1.38;;;21.80;92.90;;;;;;7380113;19;20380;-81
2022/05/15 08:54:00;;;;;;;1.40;1.15;;;21.80;91.50;;;;;;7380488;19;20300;-80
2022/05/15 08:56:26;;;;;;;2.50;1.10;;;21.90;91.50;;;;;;7383536;19;20293;-79
2022/05/15 08:58:53;;;;;;;2.10;1.00;;;22.10;90.50;;;;;;7382564;19;20437;-80
2022/05/15 09:01:24;;;;;;;1.23;1.02;;;21.80;89.60;;;;;;7375323;19;20359;-77
2022/05/15 09:03:50;;;;;;;1.95;1.00;;;21.70;90.20;;;;;;7375285;19;20375;-82
2022/05/15 09:06:23;;;;;;;1.65;1.17;;;21.90;91.20;;;;;;7381353;19;20333;-79
2022/05/15 09:09:21;;;;;;;1.50;1.13;;;22.50;90.60;;;;;;7382737;19;20392;-86
2022/05/15 09:11:56;;;;;;;1.27;1.17;;;22.70;84.50;;;;;;7284899;19;2004926;-80
2022/05/15 09:14:40;;;;;;;1.95;1.27;;;22.60;83.60;;;;;;7274615;19;2004350;-80
2022/05/15 09:17:37;;;;;;;1.58;1.10;;;22.60;84.80;;;;;;7283550;19;2004436;-80
2022/05/15 09:20:11;;;;;;;1.15;0.90;;;23.10;82.70;;;;;;7378921;19;20428;-79
2022/05/15 09:22:39;;;;;;;1.30;1.10;;;23.70;84.60;;;;;;7377955;19;20345;-82
2022/05/15 09:25:08;;;;;;;3.50;1.35;;;23.70;79.90;;;;;;7378033;19;20329;-79
2022/05/15 09:27:34;;;;;;;2.45;1.40;;;23.80;78.80;;;;;;7388231;19;20314;-78
2022/05/15 09:30:01;;;;;;;2.10;1.30;;;23.80;82.00;;;;;;7381736;19;20364;-77
2022/05/15 09:32:41;;;;;;;1.85;1.30;;;23.90;81.30;;;;;;7379859;19;20727;-79
2022/05/15 09:35:38;;;;;;;3.78;1.30;;;23.50;79.40;;;;;;7384149;19;21922;-79
2022/05/15 09:43:38;;;;;;;1.65;1.20;;;24.00;76.80;;;;;;7398209;19;20352;-85
2022/05/15 09:46:20;;;;;;;1.60;1.15;;;24.20;74.90;;;;;;7393428;19;20375;-81
2022/05/15 09:49:17;;;;;;;1.85;1.33;;;23.10;75.00;;;;;;7386783;19;20324;-77
2022/05/15 09:51:52;;;;;;;1.88;1.10;;;23.80;76.70;;;;;;7285440;19;2005632;-78
2022/05/15 09:54:28;;;;;;;1.73;1.23;;;24.10;76.70;;;;;;7283551;19;2004490;-79
2022/05/15 09:57:13;;;;;;;2.60;1.30;;;24.20;75.30;;;;;;7270191;19;2004300;-82
2022/05/15 09:59:39;;;;;;;1.02;1.02;;;24.20;73.70;;;;;;7286949;19;2004396;-79
2022/05/15 10:02:05;;;;;;;1.15;0.98;;;24.60;74.90;;;;;;7390725;19;21025;-83
2022/05/15 10:04:39;;;;;;;1.67;0.93;;;24.60;75.10;;;;;;7395368;19;20321;-84
2022/05/15 10:07:08;;;;;;;2.83;1.20;;;24.80;70.00;;;;;;7393092;19;21988;-81
2022/05/15 10:09:39;;;;;;;2.70;1.10;;;24.50;70.80;;;;;;7394299;19;20356;-85
2022/05/15 10:12:08;;;;;;;2.03;1.10;;;24.70;70.10;;;;;;7394275;19;20352;-79
2022/05/15 10:14:39;;;;;;;2.65;1.10;;;25.20;71.60;;;;;;7387682;19;20417;-80
2022/05/15 10:17:05;;;;;;;4.60;1.30;;;24.80;66.60;;;;;;7388501;19;20749;-80
2022/05/15 10:19:48;;;;;;;1.88;1.30;;;25.20;69.90;;;;;;7386256;19;20345;-78
2022/05/15 10:22:27;;;;;;;1.48;0.98;;;25.50;70.00;;;;;;7280560;19;2004497;-80
2022/05/15 10:24:53;;;;;;;1.60;1.08;;;25.70;66.20;;;;;;7372224;19;20345;-85
2022/05/15 10:27:27;;;;;;;1.40;1.00;;;25.20;61.90;;;;;;7383580;19;20357;-80
2022/05/15 10:30:07;;;;;;;1.00;0.90;;;25.90;66.30;;;;;;7382387;19;20327;-83
2022/05/15 10:32:39;;;;;;;0.80;0.80;;;26.30;66.60;;;;;;7380332;19;20305;-78
2022/05/15 10:35:05;;;;;;;0.98;0.80;;;26.50;59.10;;;;;;7380871;19;20348;-83
2022/05/15 10:38:12;;;;;;;2.45;1.00;;;27.50;68.20;;;;;;7390605;19;20355;-78
2022/05/15 10:40:54;;;;;;;1.90;1.00;;;28.10;61.60;;;;;;7384353;19;20311;-79
2022/05/15 10:43:41;;;;;;;1.85;1.08;;;28.60;61.20;;;;;;7385140;19;20351;-78
2022/05/15 10:46:30;;;;;;;1.00;0.90;;;28.50;57.80;;;;;;7385597;19;20348;-80
2022/05/15 10:49:34;;;;;;;1.10;0.90;;;27.70;55.10;;;;;;7306143;19;2004166;-82
2022/05/15 10:52:17;;;;;;;1.45;1.05;;;27.70;55.50;;;;;;7275581;19;2004345;-81
2022/05/15 10:57:55;;;;;;;1.00;0.90;;;27.90;59.30;;;;;;7228301;19;2004872;-80
2022/05/15 11:00:33;;;;;;;2.13;1.23;;;28.60;55.70;;;;;;7335610;19;20328;-79
2022/05/15 11:03:17;;;;;;;1.90;0.80;;;28.20;52.30;;;;;;7373738;19;20344;-80
2022/05/15 11:06:43;;;;;;;1.03;0.80;;;28.70;57.50;;;;;;7321798;19;20345;-80
2022/05/15 11:09:46;;;;;;;2.17;0.88;;;28.80;50.20;;;;;;7230958;19;2004341;-79
2022/05/15 11:13:09;;;;;;;0.70;0.70;;;28.70;50.30;;;;;;7266571;19;2004541;-80
2022/05/15 11:16:53;;;;;;;2.60;0.85;;;27.90;49.60;;;;;;7376616;19;20352;-85
2022/05/15 11:19:39;;;;;;;1.05;0.90;;;27.50;50.30;;;;;;7185055;19;2005410;-81
2022/05/15 11:22:45;;;;;;;2.15;0.90;;;28.10;48.20;;;;;;7305888;19;2004232;-81
2022/05/15 11:26:26;;;;;;;1.23;1.05;;;28.50;47.90;;;;;;7077551;19;2004461;-80
2022/05/15 11:28:58;;;;;;;1.25;0.88;;;28.10;47.60;;;;;;7126636;19;2004357;-80
2022/05/15 11:31:32;;;;;;;5.60;1.30;;;28.70;50.30;;;;;;7212894;19;2003967;-79
2022/05/15 11:34:02;;;;;;;1.23;1.00;;;29.30;51.20;;;;;;7404151;19;20325;-77
2022/05/15 11:36:33;;;;;;;1.10;1.00;;;29.80;49.60;;;;;;7382512;19;20341;-78
2022/05/15 11:39:05;;;;;;;2.05;0.77;;;30.00;46.30;;;;;;7383758;19;20320;-77
2022/05/15 11:42:09;;;;;;;1.38;0.88;;;30.60;49.60;;;;;;7378418;19;20644;-78
2022/05/15 11:44:38;;;;;;;0.90;0.90;;;31.00;48.20;;;;;;7287929;19;2004692;-78
2022/05/15 11:47:29;;;;;;;0.80;0.80;;;30.70;44.10;;;;;;7390967;19;20348;-78
2022/05/15 11:50:46;;;;;;;1.17;1.00;;;30.30;46.00;;;;;;7281306;19;2004503;-81
2022/05/15 12:03:56;;;;;;;0.73;0.70;;;30.10;46.20;;;;;;7385699;19;20349;-79
2022/05/15 12:06:25;;;;;;;0.70;0.70;;;30.60;49.50;;;;;;7393696;19;20353;-79
2022/05/15 12:09:16;;;;;;;0.80;0.80;;;30.90;46.20;;;;;;7391094;19;20329;-79
2022/05/15 12:11:57;;;;;;;0.90;0.90;;;31.20;46.40;;;;;;7404010;19;21043;-77
2022/05/15 12:14:26;;;;;;;0.77;0.77;;;31.70;46.10;;;;;;7402016;19;20323;-77
2022/05/15 12:16:58;;;;;;;0.77;0.77;;;31.90;45.00;;;;;;7399702;19;20327;-79
2022/05/15 12:19:37;;;;;;;1.25;0.90;;;32.00;42.10;;;;;;7402378;19;20364;-78
2022/05/15 12:22:08;;;;;;;1.77;1.00;;;31.70;43.60;;;;;;7408552;19;20315;-79
2022/05/15 12:24:36;;;;;;;2.15;0.90;;;29.60;41.50;;;;;;7408464;19;20391;-78
2022/05/15 12:27:20;;;;;;;0.77;0.77;;;29.90;43.60;;;;;;7409418;19;20315;-78
2022/05/15 12:30:09;;;;;;;2.50;1.10;;;29.90;42.70;;;;;;7306674;19;2004431;-77
2022/05/15 12:32:53;;;;;;;0.90;0.90;;;30.60;47.70;;;;;;7302415;19;2004365;-78
2022/05/15 12:35:31;;;;;;;1.40;0.90;;;29.00;40.30;;;;;;7404452;19;20717;-78
2022/05/15 12:38:04;;;;;;;1.10;1.00;;;28.80;41.10;;;;;;7409694;19;20339;-77
2022/05/15 12:40:33;;;;;;;0.80;0.80;;;28.10;41.90;;;;;;7404901;19;20347;-78
2022/05/15 12:42:59;;;;;;;0.80;0.80;;;29.10;44.80;;;;;;7403851;19;20336;-78
2022/05/15 12:45:25;;;;;;;1.03;0.93;;;29.90;44.00;;;;;;7406899;19;20328;-78
2022/05/15 12:48:03;;;;;;;0.80;0.80;;;30.20;44.00;;;;;;7409418;19;20328;-79
2022/05/15 12:50:29;;;;;;;1.00;0.90;;;31.00;42.90;;;;;;7401189;19;20356;-78
2022/05/15 12:52:57;;;;;;;0.77;0.77;;;31.10;42.20;;;;;;7398347;19;20328;-78
2022/05/15 12:55:25;;;;;;;1.00;0.90;;;31.10;42.70;;;;;;7404675;19;20840;-78
2022/05/15 12:57:53;;;;;;;0.80;0.80;;;31.40;42.20;;;;;;7402112;19;20316;-78
2022/05/15 13:00:20;;;;;;;0.90;0.90;;;31.80;41.90;;;;;;7399254;19;20889;-77
2022/05/15 13:02:47;;;;;;;1.45;0.98;;;31.50;41.90;;;;;;7398579;19;20308;-78
2022/05/15 13:05:19;;;;;;;0.77;0.77;;;31.20;42.50;;;;;;7399922;19;20344;-77
2022/05/15 13:07:44;;;;;;;1.20;0.90;;;31.30;43.30;;;;;;7402806;19;20328;-77
2022/05/15 13:10:14;;;;;;;1.10;0.90;;;31.80;42.60;;;;;;7400050;19;20424;-78
2022/05/15 13:12:57;;;;;;;0.80;0.80;;;31.80;41.80;;;;;;7399530;19;20356;-78
2022/05/15 13:15:24;;;;;;;1.40;1.08;;;31.80;41.50;;;;;;7298177;19;2011859;-77
2022/05/15 13:17:50;;;;;;;0.90;0.90;;;31.30;40.10;;;;;;7401166;19;20932;-78
2022/05/15 13:20:17;;;;;;;1.40;0.88;;;31.20;41.70;;;;;;7396937;19;21129;-79
2022/05/15 13:22:43;;;;;;;1.83;0.90;;;31.30;40.30;;;;;;7375350;19;20403;-77
2022/05/15 13:25:13;;;;;;;1.17;0.80;;;30.80;41.40;;;;;;7372260;19;20425;-78
2022/05/15 13:27:42;;;;;;;0.90;0.90;;;31.20;40.80;;;;;;7372823;19;20328;-78
2022/05/15 13:30:13;;;;;;;1.20;1.00;;;31.90;41.40;;;;;;7370794;19;20340;-78
2022/05/15 13:32:40;;;;;;;0.98;0.90;;;30.90;39.20;;;;;;7371443;19;20338;-77
2022/05/15 13:35:08;;;;;;;0.90;0.90;;;31.00;42.20;;;;;;7373096;19;20320;-77
2022/05/15 13:37:35;;;;;;;1.33;0.95;;;30.80;39.20;;;;;;7372702;19;20304;-77